EKSB

Sønderborg Airport

Sønderborg, Denmark
METAR EKSB 231450Z VRB02KT CAVOK 23/10 Q1025
Observed Flight Rules
May-23 @ 14:50 UTC (14 minutes ago) Visual Flight Rules
Wind Visibility Clouds
Variable at 2 knots 10,000+ meters
  • Clear skies
Temperatures Readings
Current 23°C / 73°F
Dewpoint 10°C / 50°F
Humidity 44%
Altimeter 30.27" Hg
Pressure 1025 hPa
Elevation 23
METAR EKSB 231450Z VRB02KT CAVOK 23/10 Q1025
Observed Flight Rules
May-23 @ 14:50 UTC
(14 minutes ago)
VFR
Wind Visibility
Variable at 2 knots 10,000+ meters
Clouds
  • Clear skies
Temperature Dewpoint
23°C / 73°F 10°C / 50°F
Humidity Altimeter Pressure
44% 30.27" Hg 1025 hPa